Time;durP1;ratioP1;P1;durP2;ratioP2;P2;SDS_P1;SDS_P2;PMS_P1;PMS_P2;Temp;Humidity;BMP_temperature;BMP_pressure;BME280_temperature;BME280_humidity;BME280_pressure;Samples;Min_cycle;Max_cycle;Signal;HPM_P1;HPM_P2
2021/10/01 00:02:18;;;;;;;57.83;32.97;;;;;;;7.35;70.20;99704.41;4951993;29;20027;-78
2021/10/01 00:04:44;;;;;;;55.78;30.65;;;;;;;7.36;70.36;99709.66;4934517;29;20023;-79
2021/10/01 00:07:11;;;;;;;57.78;29.48;;;;;;;7.31;70.11;99698.63;4951957;29;20043;-78
2021/10/01 00:09:37;;;;;;;56.90;29.42;;;;;;;7.26;69.98;99707.56;4951856;29;20114;-78
2021/10/01 00:12:04;;;;;;;55.55;31.08;;;;;;;7.25;70.16;99700.44;4948894;29;20919;-78
2021/10/01 00:14:29;;;;;;;53.53;29.80;;;;;;;7.21;70.01;99699.28;4952014;29;20066;-78
2021/10/01 00:16:56;;;;;;;56.05;30.17;;;;;;;7.15;70.11;99705.69;4952203;29;20047;-79
2021/10/01 00:19:22;;;;;;;57.08;30.80;;;;;;;7.09;69.85;99702.06;4951380;29;20035;-79
2021/10/01 00:21:48;;;;;;;52.65;30.10;;;;;;;7.04;69.89;99699.22;4934281;29;20443;-78
2021/10/01 00:24:13;;;;;;;56.88;29.00;;;;;;;7.00;70.30;99695.31;4951542;29;20023;-78
2021/10/01 00:26:40;;;;;;;59.38;29.85;;;;;;;6.96;69.95;99692.22;4951480;29;20054;-79
2021/10/01 00:29:06;;;;;;;57.67;29.17;;;;;;;6.93;70.17;99689.16;4951466;29;20035;-78
2021/10/01 00:31:32;;;;;;;50.90;28.83;;;;;;;6.90;70.27;99685.03;4951557;29;20023;-78
2021/10/01 00:33:57;;;;;;;54.50;27.27;;;;;;;6.90;70.02;99692.38;4951715;29;20066;-77
2021/10/01 00:36:23;;;;;;;49.55;26.45;;;;;;;6.87;70.36;99681.94;4951082;29;20415;-77
2021/10/01 00:38:49;;;;;;;55.25;28.88;;;;;;;6.83;69.95;99685.16;4950799;29;20118;-78
2021/10/01 00:41:14;;;;;;;53.67;27.15;;;;;;;6.82;70.22;99680.78;4951361;29;20059;-77
2021/10/01 00:43:40;;;;;;;57.10;28.80;;;;;;;6.79;70.29;99673.06;4949842;29;20387;-77
2021/10/01 00:46:05;;;;;;;51.13;26.88;;;;;;;6.80;70.07;99677.44;4951041;29;20476;-79
2021/10/01 00:48:31;;;;;;;59.65;29.90;;;;;;;6.78;70.29;99676.88;4951531;29;20037;-78
2021/10/01 00:50:57;;;;;;;75.00;36.15;;;;;;;6.73;70.11;99678.66;4934170;29;20411;-78
2021/10/01 00:53:23;;;;;;;83.32;40.33;;;;;;;6.69;70.54;99683.78;4950857;29;20043;-78
2021/10/01 00:55:49;;;;;;;75.97;38.75;;;;;;;6.66;70.16;99676.09;4950985;29;20031;-78
2021/10/01 00:58:15;;;;;;;77.05;37.40;;;;;;;6.60;70.59;99675.13;4950327;29;20035;-78
2021/10/01 01:03:39;;;;;;;78.25;38.22;;;;;;;6.53;69.86;99668.97;4937741;29;20403;-77
2021/10/01 01:06:26;;;;;;;75.10;39.63;;;;;;;6.48;70.08;99677.88;4950594;29;20043;-77
2021/10/01 01:08:59;;;;;;;77.00;37.35;;;;;;;6.44;70.03;99673.16;4950403;29;20059;-77
2021/10/01 01:11:50;;;;;;;80.13;38.30;;;;;;;6.40;69.97;99665.47;4950673;29;20027;-78
2021/10/01 01:14:45;;;;;;;73.18;35.75;;;;;;;6.39;70.59;99671.13;4934025;29;20431;-79
2021/10/01 01:17:17;;;;;;;69.30;35.30;;;;;;;6.33;69.79;99670.19;4933292;29;20171;-79
2021/10/01 01:20:02;;;;;;;68.40;35.28;;;;;;;6.30;69.88;99664.41;4950465;29;20090;-78
2021/10/01 01:22:50;;;;;;;68.78;35.60;;;;;;;6.16;69.77;99658.34;4951106;29;20106;-78
2021/10/01 01:25:53;;;;;;;71.90;35.75;;;;;;;6.08;70.02;99656.81;4949473;29;20491;-78
2021/10/01 01:28:30;;;;;;;73.43;36.63;;;;;;;6.03;70.26;99656.69;4949895;29;20038;-78
2021/10/01 01:31:04;;;;;;;68.38;34.67;;;;;;;5.94;70.10;99650.75;4932428;29;20117;-76
2021/10/01 01:33:33;;;;;;;69.18;35.88;;;;;;;5.93;70.19;99655.34;4949542;29;20082;-77
2021/10/01 01:36:00;;;;;;;69.95;35.45;;;;;;;5.95;70.84;99658.69;4949413;29;20031;-78
2021/10/01 01:38:32;;;;;;;65.22;33.45;;;;;;;5.95;70.77;99653.22;4949291;29;20027;-78
2021/10/01 01:41:02;;;;;;;68.78;34.15;;;;;;;5.96;70.88;99644.00;4949553;29;20040;-77
2021/10/01 01:43:29;;;;;;;65.03;34.42;;;;;;;5.96;71.06;99644.00;4950398;29;20034;-78
2021/10/01 01:45:54;;;;;;;58.95;31.85;;;;;;;5.99;70.67;99652.75;4950521;29;20038;-78
2021/10/01 01:48:21;;;;;;;60.10;30.98;;;;;;;5.95;71.22;99636.88;4950053;29;20515;-78
2021/10/01 01:50:48;;;;;;;58.35;32.25;;;;;;;5.94;70.96;99645.31;4949293;29;20035;-78
2021/10/01 01:53:14;;;;;;;59.58;31.90;;;;;;;5.95;70.87;99647.78;4950410;29;20031;-78
2021/10/01 01:55:41;;;;;;;65.93;34.53;;;;;;;6.02;70.66;99649.59;4950203;29;20023;-78
2021/10/01 01:58:07;;;;;;;63.55;32.47;;;;;;;6.03;71.04;99643.94;4948185;29;20039;-76
2021/10/01 02:00:34;;;;;;;55.85;31.52;;;;;;;5.99;71.06;99647.31;4950179;29;20031;-77
2021/10/01 02:03:00;;;;;;;59.17;32.85;;;;;;;5.93;70.65;99641.75;4949797;29;20035;-77
2021/10/01 02:05:26;;;;;;;60.20;30.92;;;;;;;5.88;70.74;99652.53;4932916;29;20503;-77
2021/10/01 02:07:54;;;;;;;63.80;31.48;;;;;;;5.85;70.82;99647.56;4949329;29;20063;-78
2021/10/01 02:10:22;;;;;;;56.60;31.20;;;;;;;5.85;71.24;99636.66;4949584;29;20036;-77
2021/10/01 02:12:52;;;;;;;58.10;30.15;;;;;;;5.85;70.56;99642.13;4948645;28;20114;-77
2021/10/01 02:15:21;;;;;;;52.85;28.85;;;;;;;5.81;71.01;99630.03;4953831;29;20491;-78
2021/10/01 02:17:48;;;;;;;54.03;29.33;;;;;;;5.77;70.61;99650.63;4953571;29;20051;-77
2021/10/01 02:20:15;;;;;;;55.33;29.45;;;;;;;5.73;71.01;99644.81;4952630;29;20055;-77
2021/10/01 02:22:42;;;;;;;56.75;30.23;;;;;;;5.70;70.79;99647.19;4953886;29;20419;-77
2021/10/01 02:26:33;;;;;;;58.67;29.95;;;;;;;5.68;70.58;99646.59;4952015;29;20117;-78
2021/10/01 02:27:54;;;;;;;54.95;30.08;;;;;;;5.66;70.72;99650.38;4953290;29;20547;-78
2021/10/01 02:30:22;;;;;;;54.40;29.85;;;;;;;5.70;71.09;99647.19;4952892;29;20042;-77
2021/10/01 02:33:07;;;;;;;55.20;28.25;;;;;;;5.69;70.94;99650.97;4951806;29;20023;-78
2021/10/01 02:35:33;;;;;;;50.30;27.35;;;;;;;5.72;70.91;99642.34;4952872;29;20131;-77
2021/10/01 02:37:59;;;;;;;50.58;26.05;;;;;;;5.77;71.53;99639.75;4954103;29;20043;-77
2021/10/01 02:40:25;;;;;;;44.60;23.42;;;;;;;5.81;71.67;99644.47;4953277;29;20039;-77
2021/10/01 02:42:50;;;;;;;44.70;23.98;;;;;;;5.88;71.80;99640.81;4953729;29;20408;-77
2021/10/01 02:45:16;;;;;;;43.63;22.90;;;;;;;5.92;71.28;99642.81;4954227;29;20032;-77
2021/10/01 02:47:42;;;;;;;38.90;22.08;;;;;;;5.96;71.57;99638.53;4954134;29;20441;-77
2021/10/01 02:50:12;;;;;;;37.85;21.85;;;;;;;6.01;71.76;99646.06;4953378;29;20510;-78
2021/10/01 02:52:44;;;;;;;37.33;21.08;;;;;;;6.05;71.58;99638.22;4954080;29;20479;-79
2021/10/01 02:55:17;;;;;;;42.13;21.75;;;;;;;6.07;71.59;99634.22;4953542;29;20035;-78
2021/10/01 02:57:47;;;;;;;41.00;22.23;;;;;;;6.11;71.92;99642.72;4953611;29;20039;-77
2021/10/01 03:00:13;;;;;;;43.10;24.00;;;;;;;6.15;71.79;99635.75;4953043;29;20046;-77
2021/10/01 03:02:41;;;;;;;45.75;23.75;;;;;;;6.16;71.61;99634.69;4953894;29;20027;-77
2021/10/01 03:05:07;;;;;;;44.80;24.58;;;;;;;6.17;71.48;99638.22;4953188;29;20042;-78
2021/10/01 03:07:35;;;;;;;43.53;22.75;;;;;;;6.17;71.60;99632.78;4952905;29;20130;-78
2021/10/01 03:10:04;;;;;;;40.08;21.33;;;;;;;6.18;71.83;99629.81;4952721;29;20038;-78
2021/10/01 03:12:31;;;;;;;41.55;21.58;;;;;;;6.18;72.19;99629.81;4951823;29;20023;-78
2021/10/01 03:14:57;;;;;;;33.67;19.00;;;;;;;6.20;71.81;99627.69;4952993;29;20031;-77
2021/10/01 03:17:23;;;;;;;35.17;19.13;;;;;;;6.21;71.52;99625.78;4935955;29;20031;-77
2021/10/01 03:19:50;;;;;;;38.10;19.17;;;;;;;6.20;71.66;99635.88;4949911;29;20072;-77
2021/10/01 03:22:17;;;;;;;35.55;20.08;;;;;;;6.18;71.74;99628.97;4953469;29;20026;-77
2021/10/01 03:24:43;;;;;;;35.70;19.27;;;;;;;6.15;71.80;99622.13;4951530;28;20082;-77
2021/10/01 03:27:09;;;;;;;38.40;19.77;;;;;;;6.13;71.85;99621.53;4953164;29;20031;-77
2021/10/01 03:29:36;;;;;;;36.28;20.02;;;;;;;6.14;71.46;99619.63;4951857;29;20046;-77
2021/10/01 03:32:03;;;;;;;34.10;19.85;;;;;;;6.13;71.85;99624.25;4952216;29;20074;-77
2021/10/01 03:34:29;;;;;;;36.83;20.98;;;;;;;6.16;71.48;99622.94;4952128;29;20086;-78
2021/10/01 03:36:55;;;;;;;37.55;20.17;;;;;;;6.19;71.48;99625.19;4946582;29;20028;-77
2021/10/01 03:39:22;;;;;;;39.10;19.95;;;;;;;6.19;71.60;99626.03;4951723;29;20039;-78
2021/10/01 03:41:49;;;;;;;38.13;19.48;;;;;;;6.20;71.81;99615.94;4934730;29;20082;-77
2021/10/01 03:44:15;;;;;;;35.15;18.98;;;;;;;6.17;71.39;99613.69;4952655;29;20539;-77
2021/10/01 03:46:40;;;;;;;32.90;18.67;;;;;;;6.14;71.70;99609.56;4952975;29;20130;-78
2021/10/01 03:49:05;;;;;;;35.53;18.83;;;;;;;6.10;71.27;99617.41;4934997;29;20046;-77
2021/10/01 03:51:31;;;;;;;34.13;18.73;;;;;;;6.07;71.37;99612.44;4935493;29;20020;-78
2021/10/01 03:53:58;;;;;;;36.38;18.80;;;;;;;6.03;71.70;99613.97;4952644;29;20024;-78
2021/10/01 03:56:23;;;;;;;36.03;18.55;;;;;;;6.01;71.48;99616.09;4952741;29;20031;-77
2021/10/01 03:58:49;;;;;;;32.95;18.30;;;;;;;5.96;71.35;99610.50;4951614;29;20035;-78
2021/10/01 04:01:15;;;;;;;32.70;18.00;;;;;;;5.93;71.21;99617.22;4952688;29;20058;-77
2021/10/01 04:03:41;;;;;;;37.90;20.35;;;;;;;5.92;71.44;99615.56;4952775;29;20023;-78
2021/10/01 04:06:07;;;;;;;39.70;19.40;;;;;;;5.90;71.43;99622.34;4951320;29;20527;-78
2021/10/01 04:08:33;;;;;;;37.45;19.95;;;;;;;5.86;71.00;99618.44;4951633;29;20035;-78
2021/10/01 04:10:58;;;;;;;35.22;19.70;;;;;;;5.82;71.40;99618.09;4952567;29;20078;-78
2021/10/01 04:13:24;;;;;;;37.92;19.75;;;;;;;5.80;71.44;99621.03;4952156;29;20045;-77
2021/10/01 04:15:50;;;;;;;34.50;18.70;;;;;;;5.77;71.13;99612.50;4952037;29;20031;-78
2021/10/01 04:18:15;;;;;;;40.25;19.75;;;;;;;5.75;71.63;99617.38;4952081;29;20069;-77
2021/10/01 04:20:43;;;;;;;34.13;18.50;;;;;;;5.70;71.17;99617.25;4951908;29;20027;-77
2021/10/01 04:23:09;;;;;;;38.88;19.20;;;;;;;5.65;71.45;99616.06;4952086;29;20035;-77
2021/10/01 04:25:34;;;;;;;36.53;18.73;;;;;;;5.66;71.41;99606.81;4951928;29;20042;-78
2021/10/01 04:28:00;;;;;;;35.83;19.50;;;;;;;5.65;71.14;99610.59;4934421;29;20035;-77
2021/10/01 04:30:25;;;;;;;35.53;20.33;;;;;;;5.62;71.44;99610.25;4952118;29;20432;-79
2021/10/01 04:33:02;;;;;;;36.72;20.20;;;;;;;5.58;71.32;99612.59;4953450;29;20023;-77
2021/10/01 04:35:28;;;;;;;37.40;20.77;;;;;;;5.54;71.42;99614.13;4952856;28;20035;-78
2021/10/01 04:37:53;;;;;;;36.65;20.15;;;;;;;5.52;71.58;99621.69;4952403;29;20538;-77
2021/10/01 04:40:19;;;;;;;34.25;19.52;;;;;;;5.52;71.76;99616.25;4953381;29;20106;-77
2021/10/01 04:42:44;;;;;;;36.25;19.55;;;;;;;5.48;71.33;99623.25;4953161;29;20041;-77
2021/10/01 04:45:10;;;;;;;33.72;18.17;;;;;;;5.49;71.24;99617.56;4953141;29;20126;-77
2021/10/01 04:47:37;;;;;;;32.70;18.38;;;;;;;5.48;71.57;99620.53;4949468;29;20023;-74
2021/10/01 04:50:05;;;;;;;35.20;18.70;;;;;;;5.44;71.15;99613.91;4952476;29;20058;-78
2021/10/01 04:52:31;;;;;;;37.30;20.10;;;;;;;5.42;71.40;99621.47;4935669;29;20460;-75
2021/10/01 04:54:56;;;;;;;38.00;19.42;;;;;;;5.35;71.32;99622.41;4952297;29;20110;-76
2021/10/01 04:57:22;;;;;;;35.83;19.63;;;;;;;5.34;71.65;99623.47;4952509;29;20023;-75
2021/10/01 04:59:47;;;;;;;35.80;19.48;;;;;;;5.29;71.10;99623.31;4951888;29;20123;-73
2021/10/01 05:02:12;;;;;;;43.58;23.23;;;;;;;5.23;71.29;99629.69;4951977;29;20038;-74
2021/10/01 05:04:38;;;;;;;55.67;26.35;;;;;;;5.21;70.81;99629.09;4952785;29;20114;-73
2021/10/01 05:07:03;;;;;;;62.63;31.80;;;;;;;5.18;71.29;99630.41;4946451;29;20752;-73
2021/10/01 05:09:29;;;;;;;62.35;32.40;;;;;;;5.19;71.36;99642.09;4944210;29;20484;-73
2021/10/01 05:11:54;;;;;;;63.15;32.95;;;;;;;5.20;71.56;99635.59;4948677;29;20114;-73
2021/10/01 05:14:20;;;;;;;56.00;31.38;;;;;;;5.20;70.86;99638.31;4947364;29;20071;-74
2021/10/01 05:16:45;;;;;;;55.03;28.98;;;;;;;5.12;70.89;99636.75;4948398;29;20034;-73
2021/10/01 05:19:11;;;;;;;48.40;27.85;;;;;;;5.03;70.94;99635.41;4929655;29;20057;-74
2021/10/01 05:21:36;;;;;;;54.00;30.38;;;;;;;4.94;70.95;99647.66;4951904;29;20027;-74
2021/10/01 05:24:02;;;;;;;59.78;30.55;;;;;;;4.82;70.84;99644.91;4951643;29;20110;-74
2021/10/01 05:26:27;;;;;;;61.63;31.40;;;;;;;4.73;70.70;99645.22;4951696;29;20020;-73
2021/10/01 05:28:55;;;;;;;61.30;32.15;;;;;;;4.73;70.68;99642.50;4951756;29;20791;-74
2021/10/01 05:31:21;;;;;;;67.65;35.60;;;;;;;4.77;71.64;99648.31;4949105;29;20031;-74
2021/10/01 05:33:48;;;;;;;73.63;39.15;;;;;;;4.82;71.49;99648.47;4951830;29;20471;-74
2021/10/01 05:36:15;;;;;;;79.60;40.45;;;;;;;4.85;71.65;99644.44;4934060;29;20027;-74
2021/10/01 05:38:41;;;;;;;76.53;39.22;;;;;;;4.88;71.73;99642.13;4951681;29;20035;-74
2021/10/01 05:41:06;;;;;;;71.95;37.60;;;;;;;4.95;71.88;99638.44;4951723;29;20041;-74
2021/10/01 05:43:32;;;;;;;68.15;35.13;;;;;;;5.00;71.48;99639.44;4951941;29;20027;-74
2021/10/01 05:45:58;;;;;;;72.65;36.85;;;;;;;5.03;71.99;99636.25;4951494;29;20464;-74
2021/10/01 05:48:26;;;;;;;66.50;36.45;;;;;;;5.07;71.97;99636.63;4950723;28;20031;-75
2021/10/01 05:50:54;;;;;;;63.10;35.28;;;;;;;5.13;71.34;99632.13;4934769;29;20031;-75
2021/10/01 05:54:01;;;;;;;54.22;30.90;;;;;;;5.20;72.11;99633.72;4952027;29;20019;-74
2021/10/01 05:56:15;;;;;;;46.30;25.58;;;;;;;5.27;71.95;99636.31;4948410;29;20038;-75
2021/10/01 05:58:42;;;;;;;42.20;24.90;;;;;;;5.36;71.81;99640.38;4951090;29;20039;-74
2021/10/01 06:01:09;;;;;;;43.60;24.27;;;;;;;5.46;72.40;99636.28;4949602;29;20080;-74
2021/10/01 06:03:35;;;;;;;42.55;24.35;;;;;;;5.51;72.33;99639.09;4950101;29;20574;-74
2021/10/01 06:06:00;;;;;;;45.20;26.55;;;;;;;5.60;72.06;99636.88;4951552;29;20028;-75
2021/10/01 06:08:26;;;;;;;43.67;25.27;;;;;;;5.71;72.27;99635.22;4950940;29;20461;-74
2021/10/01 06:10:52;;;;;;;49.80;27.85;;;;;;;5.80;72.26;99628.38;4951671;29;20614;-74
2021/10/01 06:13:17;;;;;;;51.25;28.67;;;;;;;5.90;72.63;99630.50;4951854;29;20034;-74
2021/10/01 06:15:44;;;;;;;43.03;26.83;;;;;;;5.98;72.44;99635.59;4951231;29;20023;-74
2021/10/01 06:18:09;;;;;;;46.75;26.50;;;;;;;6.08;72.81;99637.75;4951139;29;20470;-74
2021/10/01 06:20:35;;;;;;;45.95;26.45;;;;;;;6.14;72.56;99627.78;4951429;29;20019;-74
2021/10/01 06:23:01;;;;;;;48.38;26.90;;;;;;;6.13;72.51;99626.97;4951664;29;20517;-74
2021/10/01 06:25:26;;;;;;;46.25;26.52;;;;;;;6.12;72.23;99636.22;4951608;29;20031;-74
2021/10/01 06:27:52;;;;;;;45.90;25.73;;;;;;;6.11;72.38;99635.38;4950968;29;20024;-73
2021/10/01 06:30:18;;;;;;;46.08;26.92;;;;;;;6.13;72.37;99628.88;4951187;29;20388;-74
2021/10/01 06:32:44;;;;;;;44.40;26.60;;;;;;;6.16;72.68;99639.28;4950729;29;20031;-73
2021/10/01 06:35:10;;;;;;;47.92;27.58;;;;;;;6.22;73.15;99638.34;4951175;29;20102;-73
2021/10/01 06:37:36;;;;;;;44.47;25.55;;;;;;;6.32;72.85;99632.28;4950910;29;20134;-72
2021/10/01 06:40:02;;;;;;;44.63;24.80;;;;;;;6.36;73.45;99634.31;4950061;29;20050;-72
2021/10/01 06:42:27;;;;;;;39.45;24.08;;;;;;;6.46;73.45;99630.97;4951335;29;20015;-73
2021/10/01 06:44:55;;;;;;;42.42;24.27;;;;;;;6.60;73.88;99633.44;4951503;29;20510;-74
2021/10/01 06:47:35;;;;;;;44.05;25.02;;;;;;;6.72;73.86;99623.31;4949362;29;20547;-74
2021/10/01 06:50:09;;;;;;;49.17;28.55;;;;;;;6.86;73.66;99632.03;4933784;29;20031;-73
2021/10/01 07:35:02;;;;;;;52.38;30.23;;;;;;;8.65;74.77;99617.94;4947149;29;20045;-73
2021/10/01 08:20:36;;;;;;;21.02;13.00;;;;;;;10.85;73.52;99579.84;4953247;29;20097;-74
2021/10/01 08:23:02;;;;;;;19.55;12.85;;;;;;;10.96;73.44;99583.44;4952687;29;20047;-74
2021/10/01 08:25:27;;;;;;;19.13;11.77;;;;;;;11.03;73.07;99575.75;4952740;29;20052;-74
2021/10/01 08:27:53;;;;;;;21.65;12.75;;;;;;;11.11;72.22;99564.25;4952943;29;20112;-74
2021/10/01 08:30:18;;;;;;;16.60;11.10;;;;;;;11.20;72.00;99571.94;4952663;29;20042;-74
2021/10/01 08:32:44;;;;;;;23.35;13.18;;;;;;;11.27;71.99;99558.78;4952208;29;20089;-74
2021/10/01 08:35:11;;;;;;;21.60;12.48;;;;;;;11.35;72.58;99568.38;4951938;29;20050;-74
2021/10/01 08:37:36;;;;;;;20.00;11.10;;;;;;;11.43;71.76;99559.59;4953071;29;20019;-74
2021/10/01 08:40:06;;;;;;;19.27;12.00;;;;;;;11.47;71.86;99560.69;4951710;29;20046;-74
2021/10/01 08:42:33;;;;;;;21.50;13.27;;;;;;;11.57;71.46;99563.44;4951473;29;20066;-73
2021/10/01 08:45:00;;;;;;;20.73;12.05;;;;;;;11.68;71.54;99558.75;4951403;29;20035;-73
2021/10/01 08:47:26;;;;;;;21.27;12.68;;;;;;;11.78;71.33;99555.16;4950927;29;20102;-73
2021/10/01 08:49:58;;;;;;;23.73;13.20;;;;;;;11.90;71.40;99555.72;4951592;29;20031;-74
2021/10/01 08:52:24;;;;;;;17.23;11.63;;;;;;;12.02;71.16;99554.63;4952383;29;20019;-74
2021/10/01 08:54:50;;;;;;;18.25;11.18;;;;;;;12.13;70.64;99552.66;4947528;29;20110;-73
2021/10/01 08:57:15;;;;;;;24.95;13.65;;;;;;;12.23;70.00;99557.28;4951516;28;20122;-72
2021/10/01 08:59:41;;;;;;;20.35;12.27;;;;;;;12.29;69.93;99554.25;4952057;29;20396;-72
2021/10/01 09:02:07;;;;;;;18.65;11.13;;;;;;;12.38;69.79;99554.50;4952324;29;20502;-73
2021/10/01 09:04:32;;;;;;;18.10;11.48;;;;;;;12.45;69.95;99554.19;4950978;29;20031;-72
2021/10/01 09:06:59;;;;;;;18.52;11.75;;;;;;;12.56;69.79;99549.47;4951635;29;20114;-75
2021/10/01 09:09:46;;;;;;;18.20;10.80;;;;;;;12.63;69.25;99553.53;4950565;29;20090;-73
2021/10/01 09:12:16;;;;;;;18.00;11.68;;;;;;;12.71;68.91;99552.13;4950708;29;20035;-73
2021/10/01 09:14:54;;;;;;;18.23;11.52;;;;;;;12.76;67.86;99549.38;4952162;29;20050;-73
2021/10/01 09:17:22;;;;;;;19.58;10.52;;;;;;;12.81;67.87;99551.25;4950182;29;20078;-73
2021/10/01 09:19:49;;;;;;;15.80;10.70;;;;;;;12.87;67.97;99539.09;4954352;29;20042;-73
2021/10/01 09:22:33;;;;;;;16.25;11.15;;;;;;;12.91;67.61;99542.94;4951711;28;20439;-74
2021/10/01 09:25:09;;;;;;;16.95;11.23;;;;;;;12.98;67.84;99539.03;4949649;29;20487;-72
2021/10/01 09:27:35;;;;;;;20.30;12.10;;;;;;;13.02;66.99;99540.94;4949842;29;20503;-71
2021/10/01 09:30:01;;;;;;;21.13;12.82;;;;;;;13.04;67.10;99537.91;4950733;29;20061;-73
2021/10/01 09:32:27;;;;;;;20.17;12.02;;;;;;;13.04;66.90;99541.47;4951758;28;20487;-71
2021/10/01 09:34:52;;;;;;;18.42;12.68;;;;;;;13.06;67.07;99536.50;4934596;29;20042;-71
2021/10/01 09:37:27;;;;;;;17.67;11.38;;;;;;;13.16;67.42;99532.03;4952108;29;20372;-72
2021/10/01 09:39:55;;;;;;;20.67;11.77;;;;;;;13.24;67.38;99532.22;4948405;29;20039;-72
2021/10/01 09:42:26;;;;;;;15.85;10.52;;;;;;;13.34;67.20;99536.81;4949906;29;20034;-73
2021/10/01 09:45:05;;;;;;;15.32;9.20;;;;;;;13.45;66.95;99528.50;4950951;29;20023;-72
2021/10/01 09:47:31;;;;;;;17.42;9.80;;;;;;;13.55;66.62;99511.91;4948088;29;20275;-72
2021/10/01 09:50:02;;;;;;;15.68;9.00;;;;;;;13.67;66.65;99526.09;4952087;29;20480;-73
2021/10/01 09:52:45;;;;;;;13.90;8.60;;;;;;;13.80;66.20;99521.84;4952281;29;20488;-74
2021/10/01 09:55:12;;;;;;;10.95;7.90;;;;;;;13.89;66.48;99519.25;4951671;29;20428;-74
2021/10/01 09:57:39;;;;;;;15.27;8.20;;;;;;;13.99;65.89;99521.09;4951495;29;20023;-73
2021/10/01 10:00:33;;;;;;;10.32;6.95;;;;;;;14.01;64.52;99507.00;4930208;29;20042;-73
2021/10/01 10:02:59;;;;;;;12.32;6.60;;;;;;;14.04;64.69;99515.50;4949738;29;20062;-73
2021/10/01 10:05:53;;;;;;;10.70;7.35;;;;;;;14.10;64.55;99514.34;4951440;29;20031;-72
2021/10/01 10:08:22;;;;;;;9.52;6.28;;;;;;;14.19;64.48;99508.19;4949562;29;20094;-72
2021/10/01 10:10:49;;;;;;;10.85;6.68;;;;;;;14.28;64.22;99507.22;4932294;29;20098;-72
2021/10/01 10:13:14;;;;;;;10.30;6.70;;;;;;;14.34;63.77;99507.97;4934389;29;20155;-76
2021/10/01 10:15:39;;;;;;;9.23;6.95;;;;;;;14.40;64.01;99509.56;4950801;29;20081;-77
2021/10/01 10:18:17;;;;;;;11.80;6.90;;;;;;;14.46;63.75;99498.44;4950064;29;20036;-77
2021/10/01 10:20:42;;;;;;;12.90;7.40;;;;;;;14.54;63.36;99501.34;4949230;29;20050;-77
2021/10/01 10:23:08;;;;;;;10.85;7.38;;;;;;;14.62;63.56;99501.81;4951123;29;20062;-78
2021/10/01 10:25:35;;;;;;;13.10;8.02;;;;;;;14.65;63.04;99493.78;4950841;29;20078;-76
2021/10/01 10:28:01;;;;;;;13.10;7.45;;;;;;;14.70;63.55;99493.72;4944081;29;20036;-76
2021/10/01 10:30:26;;;;;;;10.85;6.80;;;;;;;14.76;62.91;99490.88;4951329;29;20031;-76
2021/10/01 10:32:52;;;;;;;7.68;5.45;;;;;;;14.83;62.64;99486.63;4952053;29;20031;-76
2021/10/01 10:35:19;;;;;;;9.43;5.90;;;;;;;14.97;62.30;99491.38;4954362;28;20039;-77
2021/10/01 10:37:48;;;;;;;10.07;5.22;;;;;;;15.06;62.61;99483.25;4938410;29;20082;-77
2021/10/01 10:40:18;;;;;;;10.23;5.60;;;;;;;15.20;62.05;99489.63;4954798;29;20488;-78
2021/10/01 10:42:47;;;;;;;7.88;5.50;;;;;;;15.33;61.96;99482.50;4955005;29;20094;-78
2021/10/01 10:45:27;;;;;;;8.43;5.30;;;;;;;15.41;60.95;99475.47;4955894;29;20097;-79
2021/10/01 10:48:11;;;;;;;8.57;5.75;;;;;;;15.43;60.79;99476.00;4954456;29;20090;-76
2021/10/01 10:50:44;;;;;;;8.85;5.40;;;;;;;15.46;60.92;99473.44;4954854;29;20023;-77
2021/10/01 10:53:20;;;;;;;7.60;5.38;;;;;;;15.54;60.36;99462.81;4954746;29;20038;-78
2021/10/01 10:56:02;;;;;;;8.15;4.60;;;;;;;15.62;61.11;99473.16;4954126;29;20024;-78
2021/10/01 10:58:27;;;;;;;5.80;4.45;;;;;;;15.74;60.22;99464.38;4954849;29;20039;-78
2021/10/01 11:01:21;;;;;;;8.75;5.63;;;;;;;15.83;60.24;99461.69;4954264;29;21421;-78
2021/10/01 11:03:48;;;;;;;6.50;3.67;;;;;;;15.92;59.47;99455.16;4946652;29;20039;-78
2021/10/01 11:06:15;;;;;;;3.88;2.78;;;;;;;15.95;58.50;99455.69;4955097;29;20038;-77
2021/10/01 11:08:46;;;;;;;4.50;2.95;;;;;;;15.92;57.10;99457.94;4937412;29;20665;-78
2021/10/01 11:11:29;;;;;;;6.28;3.65;;;;;;;15.96;57.10;99458.16;4954548;29;20027;-78
2021/10/01 11:14:13;;;;;;;7.15;3.88;;;;;;;16.00;56.35;99461.94;4954863;29;20054;-79
2021/10/01 11:16:39;;;;;;;7.03;4.47;;;;;;;16.05;57.12;99455.47;4947114;29;20703;-78
2021/10/01 11:19:05;;;;;;;6.43;4.55;;;;;;;16.08;56.05;99452.09;4953987;29;20456;-79
2021/10/01 11:21:33;;;;;;;6.63;4.72;;;;;;;16.16;57.09;99456.06;4936668;29;20055;-78
2021/10/01 11:24:18;;;;;;;8.88;4.53;;;;;;;16.26;57.16;99441.22;4954509;29;20055;-79
2021/10/01 11:26:48;;;;;;;8.45;4.65;;;;;;;16.32;55.90;99442.72;4954270;29;20058;-77
2021/10/01 11:29:20;;;;;;;7.82;5.25;;;;;;;16.33;55.78;99445.19;4953416;29;20111;-77
2021/10/01 11:31:46;;;;;;;7.28;5.00;;;;;;;16.36;56.36;99432.66;4953951;29;20035;-76
2021/10/01 11:34:11;;;;;;;7.72;5.03;;;;;;;16.46;55.42;99429.69;4953869;29;20380;-77
2021/10/01 11:36:39;;;;;;;7.65;4.70;;;;;;;16.51;54.96;99429.56;4953351;29;20062;-78
2021/10/01 11:39:08;;;;;;;8.52;4.72;;;;;;;16.51;54.90;99435.09;4954152;29;20034;-77
2021/10/01 11:41:40;;;;;;;7.97;4.43;;;;;;;16.59;54.56;99424.41;4954241;29;20031;-79
2021/10/01 11:44:08;;;;;;;9.25;4.30;;;;;;;16.63;53.41;99420.69;4954512;29;20372;-78
2021/10/01 11:46:38;;;;;;;7.53;4.43;;;;;;;16.64;52.85;99419.56;4952884;28;20038;-78
2021/10/01 11:49:13;;;;;;;10.15;5.00;;;;;;;16.63;52.46;99422.66;4954105;29;20031;-77
2021/10/01 11:51:40;;;;;;;6.82;4.63;;;;;;;16.65;53.20;99426.75;4953804;29;20035;-77
2021/10/01 11:54:12;;;;;;;7.55;4.60;;;;;;;16.74;54.36;99423.22;4953964;29;20031;-77
2021/10/01 11:56:38;;;;;;;8.10;4.72;;;;;;;16.82;52.88;99414.16;4953729;29;20067;-76
2021/10/01 11:59:05;;;;;;;6.55;4.55;;;;;;;16.88;51.43;99410.16;4953566;29;20042;-79
2021/10/01 12:01:31;;;;;;;8.68;5.60;;;;;;;16.94;52.74;99414.41;4953117;29;20054;-77
2021/10/01 12:03:58;;;;;;;8.07;5.30;;;;;;;16.96;51.62;99405.81;4954004;29;20027;-78
2021/10/01 12:06:35;;;;;;;10.02;5.13;;;;;;;16.92;51.88;99393.69;4953309;29;20498;-78
2021/10/01 12:09:03;;;;;;;8.93;4.80;;;;;;;16.98;52.38;99397.19;4947778;29;20059;-76
2021/10/01 12:11:34;;;;;;;8.88;4.97;;;;;;;17.05;50.68;99394.78;4953633;28;20118;-77
2021/10/01 12:14:11;;;;;;;7.47;5.07;;;;;;;17.17;51.22;99389.47;4950236;29;20031;-77
2021/10/01 12:16:39;;;;;;;7.03;4.65;;;;;;;17.23;50.25;99379.91;4953404;29;20551;-77
2021/10/01 12:19:05;;;;;;;8.05;5.03;;;;;;;17.26;48.84;99381.19;4953082;29;20035;-77
2021/10/01 12:21:32;;;;;;;8.75;5.35;;;;;;;17.37;50.21;99370.66;4952767;29;20459;-77
2021/10/01 12:24:13;;;;;;;7.13;4.55;;;;;;;17.58;50.85;99372.88;4952511;29;20030;-77
2021/10/01 12:26:43;;;;;;;7.47;4.60;;;;;;;17.77;50.11;99367.03;4952926;29;20027;-78
2021/10/01 12:29:15;;;;;;;7.85;4.80;;;;;;;17.91;49.19;99364.97;4952569;29;20107;-76
2021/10/01 12:31:59;;;;;;;7.60;4.80;;;;;;;18.08;50.35;99355.88;4952593;29;20043;-78
2021/10/01 12:34:30;;;;;;;7.00;4.53;;;;;;;18.28;50.40;99359.16;4949856;29;20039;-79
2021/10/01 12:37:03;;;;;;;8.88;5.18;;;;;;;18.52;50.19;99346.75;4950426;29;20035;-78
2021/10/01 12:39:31;;;;;;;8.13;4.88;;;;;;;18.78;50.13;99341.13;4935272;29;20023;-78
2021/10/01 12:42:05;;;;;;;7.53;4.57;;;;;;;18.96;48.58;99347.50;4952757;29;20110;-77
2021/10/01 12:44:40;;;;;;;10.05;4.80;;;;;;;19.15;48.42;99340.75;4952998;29;20099;-78
2021/10/01 12:47:14;;;;;;;11.73;5.03;;;;;;;19.43;48.13;99335.59;4953587;29;20074;-77
2021/10/01 12:49:40;;;;;;;9.00;5.05;;;;;;;20.34;45.65;99333.56;4953409;29;20098;-79
2021/10/01 12:52:19;;;;;;;7.15;4.63;;;;;;;21.02;45.58;99326.03;4952988;29;20030;-79
2021/10/01 12:54:46;;;;;;;8.70;5.13;;;;;;;21.53;45.10;99322.94;4953050;29;20535;-77
2021/10/01 12:57:14;;;;;;;8.40;5.38;;;;;;;21.85;44.57;99321.22;4953033;28;20477;-80
2021/10/01 12:59:53;;;;;;;8.13;5.88;;;;;;;22.40;44.83;99315.25;4951223;29;20035;-81
2021/10/01 13:02:26;;;;;;;6.93;4.88;;;;;;;23.33;44.41;99312.56;4944904;29;20035;-81
2021/10/01 13:04:58;;;;;;;7.32;5.20;;;;;;;24.49;44.32;99313.16;4946083;29;20038;-84